Terminal Aerodrome Forecast
Issued by NWS Sioux Falls, SD

Home | Current Version | Previous Version | Text Only | Print | Product List | Glossary On
Versions: 1 2 3 4 5 6 7 8 9 10 11 12 13 14 15 16 17 18
000
FTUS43 KFSD 231100
TAFFSD
TAF
KFSD 231131Z 2312/2412 04014KT P6SM VCSH SCT015 OVC150
     FM231300 07013KT P6SM SCT015 SCT150
     FM231700 13013G20KT P6SM SCT025 BKN090
     FM240000 15012G18KT P6SM BKN070
      TEMPO 2400/2403 5SM TSRA BKN020CB
     FM240400 17008KT P6SM SCT040 BKN070=

USA.gov is the U.S. government's official web portal to all federal, state and local government web resources and services.